Panora, IA (50216)

7:29 PM CDT on October 01, 2014 (GMT -0500)
Perry Municipal | Change Station
CLOSE
Current Station
Airport
Location: Perry,
Elevation: 1014 ft
Nearby Weather Stations

Elev 1014 ft 41.83 °N, 94.16 °W | Updated 14 minutes ago

Mostly Cloudy
Mostly Cloudy
62 °F
Feels Like 62 °F
N
8
Wind Variable Wind from North
Gusts 12 mph

Today
High -- | Low -- °F
--% Chance of Precip.
Yesterday
High -- | Low -- °F
Precip. -- in
7:14 AM 6:59 PM
First Quarter, 52% visible
Pressure 29.85 in
Visibility 0.5 miles
Clouds Mostly Cloudy 1000 ft
Overcast 1900 ft
Dew Point 61 °F
Humidity 96%
Rainfall 2.76 in
Snow Depth Not available.
UV 0 out of 12
Pollen .40 out of 12
Air Quality Not available.
Flu Activity Not available.
METAR KPRO 010015Z AUTO 36007G10KT 350V060 1/2SM +RA BKN010 OVC019 17/16 A2985 RMK AO2 P0059 T01660160

More Conditions Fewer Conditions

Pressure 29.85 in
Visibility 0.5 miles
Clouds Mostly Cloudy 1000 ft
Overcast 1900 ft
Dew Point 61 °F
Humidity 96%
Rainfall 2.76 in
Snow Depth Not available.
UV 0 out of 12
Pollen .40 out of 12
Air Quality Not available.
Flu Activity Not available.
METAR KPRO 010015Z AUTO 36007G10KT 350V060 1/2SM +RA BKN010 OVC019 17/16 A2985 RMK AO2 P0059 T01660160

More Conditions Fewer Conditions

10-Day Weather Forecast

Almanac

Astronomy

Oct. 01, 2014 Rise Set
Actual Time 7:14 AM CDT 6:59 PM CDT
Civil Twilight 6:46 AM CDT 7:26 PM CDT
Nautical Twilight 6:14 AM CDT 7:58 PM CDT
Astronomical Twilight 5:41 AM CDT 8:31 PM CDT
Moon 2:19 PM CDT (10/1) No Moon Set
Length of Visible Light 12h 40m
Length of Day
11h 44m
Tomorrow will be 2m 45s shorter.
First Quarter, 52% of the Moon is Illuminated
Today
First Quarter
Oct 8
Full
Oct 15
Last Quarter
Oct 23
New
Oct 30
First Quarter

Today's Extremes

State Highs State Lows

Community

WunderPhotos

Upload Photos

1,758,097 photos uploaded!

WunderBlogs® & News

Nearby

Snow Depth

Station Depth Elevation
No new snow has been reported.

Earthquake Activity

City Distance Mag. Time & Date
No recent earthquake activity has been reported nearby.
Minimum magnitude displayed is 2.5.

Coastal Water Temperatures

Place Temperature
No Stations Reporting

Nearby Weather Stations